Time;durP1;ratioP1;P1;durP2;ratioP2;P2;SDS_P1;SDS_P2;PMS_P1;PMS_P2;Temp;Humidity;BMP_temperature;BMP_pressure;BME280_temperature;BME280_humidity;BME280_pressure;Samples;Min_cycle;Max_cycle;Signal;HPM_P1;HPM_P2
2022/01/05 00:01:49;;;;;;;7.85;4.70;;;;;;;9.00;58.49;99744.17;1767573;80;26065;-61
2022/01/05 00:04:16;;;;;;;10.78;4.83;;;;;;;9.01;58.48;99744.02;1771138;79;27476;-61
2022/01/05 00:06:43;;;;;;;7.95;4.35;;;;;;;9.07;58.43;99758.67;1770547;79;25750;-61
2022/01/05 00:09:09;;;;;;;7.40;4.33;;;;;;;9.10;58.50;99765.59;1770324;80;25652;-61
2022/01/05 00:11:36;;;;;;;9.40;3.72;;;;;;;9.11;58.45;99767.25;1774800;80;26391;-62
2022/01/05 00:14:03;;;;;;;8.45;4.67;;;;;;;9.10;58.75;99771.79;1767363;80;25684;-61
2022/01/05 00:16:30;;;;;;;11.73;4.87;;;;;;;9.08;58.63;99766.59;1770057;79;27435;-61
2022/01/05 00:18:58;;;;;;;9.38;4.92;;;;;;;9.09;58.60;99764.73;1771450;80;25746;-61
2022/01/05 00:21:28;;;;;;;8.93;4.60;;;;;;;9.10;58.67;99762.91;1766656;80;26528;-62
2022/01/05 00:23:55;;;;;;;9.25;4.78;;;;;;;9.10;58.65;99764.25;1766905;80;25805;-62
2022/01/05 00:26:22;;;;;;;14.25;5.42;;;;;;;9.05;58.66;99772.24;1767598;80;26031;-62
2022/01/05 00:28:49;;;;;;;9.30;5.10;;;;;;;9.03;58.90;99773.39;1757886;81;27502;-62
2022/01/05 00:31:16;;;;;;;11.10;4.87;;;;;;;8.98;59.02;99781.03;1759509;80;25821;-62
2022/01/05 00:33:43;;;;;;;8.75;4.20;;;;;;;8.94;59.14;99784.52;1772201;80;26403;-62
2022/01/05 00:36:12;;;;;;;9.45;4.90;;;;;;;8.92;59.21;99778.45;1794144;80;25836;-62
2022/01/05 00:38:38;;;;;;;12.98;5.53;;;;;;;8.90;59.23;99771.91;1773038;80;26359;-62
2022/01/05 00:41:08;;;;;;;11.35;5.42;;;;;;;8.86;59.38;99763.83;1772918;80;27459;-62
2022/01/05 00:43:35;;;;;;;12.85;5.62;;;;;;;8.83;59.44;99753.90;1761231;80;25671;-62
2022/01/05 00:46:02;;;;;;;9.63;5.25;;;;;;;8.81;59.50;99747.83;1785743;80;25752;-62
2022/01/05 00:48:34;;;;;;;7.87;5.30;;;;;;;8.82;59.56;99754.89;1776256;80;25809;-61
2022/01/05 00:51:00;;;;;;;15.70;5.25;;;;;;;8.82;59.64;99753.55;1792994;79;25745;-62
2022/01/05 00:53:28;;;;;;;8.48;5.15;;;;;;;8.81;59.71;99751.34;1771040;79;27456;-62
2022/01/05 00:55:56;;;;;;;8.03;4.67;;;;;;;8.80;59.57;99741.61;1759304;81;25832;-62
2022/01/05 00:58:26;;;;;;;12.00;5.10;;;;;;;8.80;59.65;99740.27;1759384;81;25739;-62
2022/01/05 01:00:53;;;;;;;10.23;5.33;;;;;;;8.81;59.84;99748.66;1763218;80;25843;-62
2022/01/05 01:03:20;;;;;;;9.60;5.25;;;;;;;8.81;59.71;99746.49;1759765;79;25815;-61
2022/01/05 01:05:47;;;;;;;9.80;5.20;;;;;;;8.75;59.83;99740.72;1777302;80;27486;-61
2022/01/05 01:08:14;;;;;;;9.98;5.22;;;;;;;8.71;59.92;99742.03;1793985;79;26466;-62
2022/01/05 01:10:41;;;;;;;11.68;5.12;;;;;;;8.68;59.97;99736.13;1770622;80;25451;-62
2022/01/05 01:13:08;;;;;;;9.28;5.22;;;;;;;8.63;59.97;99729.00;1759202;81;25803;-61
2022/01/05 01:15:36;;;;;;;12.13;4.60;;;;;;;8.55;60.11;99732.45;1759286;81;25779;-61
2022/01/05 01:18:03;;;;;;;12.35;4.72;;;;;;;8.53;60.45;99734.43;1760989;79;27548;-62
2022/01/05 01:20:30;;;;;;;10.30;4.87;;;;;;;8.49;60.51;99742.41;1779800;80;25579;-62
2022/01/05 01:22:57;;;;;;;17.75;5.25;;;;;;;8.44;60.79;99742.34;1793777;80;25824;-62
2022/01/05 01:25:26;;;;;;;7.65;4.67;;;;;;;8.37;60.72;99739.91;1794090;80;26451;-62
2022/01/05 01:27:55;;;;;;;9.58;4.42;;;;;;;8.27;60.75;99728.38;1794019;80;27215;-62
2022/01/05 01:30:22;;;;;;;7.80;4.55;;;;;;;8.22;61.68;99715.42;1780048;80;28170;-61
2022/01/05 01:32:48;;;;;;;9.05;4.70;;;;;;;8.15;61.48;99711.13;1793994;79;25770;-62
2022/01/05 01:35:15;;;;;;;8.38;4.05;;;;;;;8.16;61.88;99720.00;1794107;80;25697;-62
2022/01/05 01:37:42;;;;;;;6.10;3.30;;;;;;;8.14;61.86;99723.34;1781074;80;25806;-62
2022/01/05 01:40:12;;;;;;;7.10;3.72;;;;;;;8.18;62.21;99722.55;1768559;80;25680;-62
2022/01/05 01:42:39;;;;;;;6.78;4.25;;;;;;;8.24;62.29;99728.66;1758038;81;27451;-61
2022/01/05 01:45:08;;;;;;;7.85;4.00;;;;;;;8.34;61.94;99732.66;1761300;80;26496;-61
2022/01/05 01:47:34;;;;;;;9.23;4.47;;;;;;;8.37;61.71;99730.53;1794297;79;25750;-61
2022/01/05 01:50:05;;;;;;;7.37;4.05;;;;;;;8.41;61.65;99735.09;1791465;80;25844;-62
2022/01/05 01:52:32;;;;;;;7.05;4.00;;;;;;;8.44;61.62;99736.98;1775678;79;25782;-62
2022/01/05 01:54:59;;;;;;;7.35;4.17;;;;;;;8.45;61.51;99721.73;1765887;79;27494;-62
2022/01/05 01:57:36;;;;;;;8.53;3.80;;;;;;;8.51;60.96;99723.00;1790070;80;27296;-62
2022/01/05 02:00:08;;;;;;;7.17;4.25;;;;;;;8.55;60.84;99725.23;1777844;80;25727;-61
2022/01/05 02:02:45;;;;;;;9.20;4.53;;;;;;;8.57;61.04;99719.23;1759093;81;25804;-62
2022/01/05 02:05:12;;;;;;;9.70;4.95;;;;;;;8.58;60.72;99728.11;1759549;81;25811;-62
2022/01/05 02:07:40;;;;;;;6.78;3.25;;;;;;;8.56;60.81;99729.61;1776123;80;27456;-62
2022/01/05 02:10:10;;;;;;;5.65;3.92;;;;;;;8.56;60.80;99726.09;1793602;79;25778;-61
2022/01/05 02:12:37;;;;;;;8.88;4.50;;;;;;;8.57;60.82;99727.77;1761809;80;25779;-61
2022/01/05 02:15:06;;;;;;;8.70;3.92;;;;;;;8.49;60.63;99729.00;1759010;81;25804;-61
2022/01/05 02:17:47;;;;;;;9.23;3.92;;;;;;;8.37;60.67;99740.38;1772670;80;25727;-62
2022/01/05 02:20:22;;;;;;;7.97;3.98;;;;;;;8.25;60.65;99724.99;1793992;79;28251;-61
2022/01/05 02:22:50;;;;;;;6.58;3.70;;;;;;;8.15;61.23;99725.88;1790290;79;25801;-62
2022/01/05 02:25:18;;;;;;;8.25;4.87;;;;;;;8.15;61.24;99727.20;1779306;80;25718;-60
2022/01/05 02:27:48;;;;;;;9.18;4.22;;;;;;;8.13;61.35;99729.19;1769053;80;25780;-61
2022/01/05 02:30:28;;;;;;;11.95;4.30;;;;;;;8.07;61.34;99742.34;1766683;80;25831;-61
2022/01/05 02:32:56;;;;;;;6.10;3.90;;;;;;;8.00;61.26;99747.42;1781625;80;27421;-61
2022/01/05 02:35:28;;;;;;;7.90;4.30;;;;;;;7.94;61.34;99751.52;1781264;80;25970;-60
2022/01/05 02:37:58;;;;;;;7.12;4.58;;;;;;;7.84;61.42;99738.64;1778428;79;25777;-62
2022/01/05 02:40:26;;;;;;;6.08;3.95;;;;;;;7.74;61.54;99738.67;1781534;80;26454;-62
2022/01/05 02:42:56;;;;;;;8.05;4.83;;;;;;;7.61;61.64;99744.32;1773061;80;25701;-62
2022/01/05 02:45:26;;;;;;;7.42;4.50;;;;;;;7.51;61.77;99736.28;1765525;81;28222;-62
2022/01/05 02:47:55;;;;;;;11.35;4.92;;;;;;;7.45;61.96;99730.17;1766679;80;25809;-62
2022/01/05 02:50:22;;;;;;;7.08;4.58;;;;;;;7.35;62.15;99736.84;1765582;81;25738;-61
2022/01/05 02:52:49;;;;;;;9.88;4.87;;;;;;;7.25;62.31;99726.66;1765440;80;25755;-62
2022/01/05 02:55:16;;;;;;;7.65;4.30;;;;;;;7.18;62.58;99730.38;1779131;80;27310;-62
2022/01/05 02:57:43;;;;;;;8.73;4.20;;;;;;;7.09;62.74;99733.03;1786141;79;27482;-62
2022/01/05 03:00:13;;;;;;;7.70;4.42;;;;;;;6.99;63.05;99731.69;1773211;79;25770;-61
2022/01/05 03:02:40;;;;;;;7.03;4.28;;;;;;;6.95;63.32;99720.43;1769402;81;25716;-61
2022/01/05 03:05:09;;;;;;;9.93;3.80;;;;;;;6.90;64.16;99714.67;1769281;80;25789;-61
2022/01/05 03:07:41;;;;;;;10.13;4.45;;;;;;;6.85;64.17;99698.18;1783988;79;25901;-61
2022/01/05 03:10:13;;;;;;;6.12;3.77;;;;;;;6.81;64.46;99704.80;1763937;81;28324;-62
2022/01/05 03:12:44;;;;;;;10.32;4.67;;;;;;;6.77;64.66;99708.72;1764861;81;25806;-61
2022/01/05 03:15:14;;;;;;;5.05;3.37;;;;;;;6.77;65.43;99714.90;1766579;80;25739;-61
2022/01/05 03:17:42;;;;;;;10.35;4.05;;;;;;;6.77;65.49;99724.25;1776855;80;25778;-62
2022/01/05 03:20:13;;;;;;;8.13;3.77;;;;;;;6.76;65.39;99715.05;1779097;80;25813;-62
2022/01/05 03:22:41;;;;;;;8.13;4.05;;;;;;;6.74;66.05;99713.86;1779782;80;28168;-61
2022/01/05 03:25:15;;;;;;;5.50;3.55;;;;;;;6.71;65.89;99702.95;1762556;80;25738;-62
2022/01/05 03:27:38;;;;;;;6.55;4.03;;;;;;;6.74;66.17;99693.81;1792561;78;25767;-61
2022/01/05 03:30:07;;;;;;;6.65;4.17;;;;;;;6.77;65.95;99700.20;1787177;78;26817;-62
2022/01/05 03:32:47;;;;;;;8.18;3.95;;;;;;;6.79;66.10;99700.91;1786609;80;25718;-61
2022/01/05 03:35:08;;;;;;;10.80;4.53;;;;;;;6.82;66.04;99694.44;1785643;78;27486;-61
2022/01/05 03:37:35;;;;;;;9.88;4.78;;;;;;;6.86;66.01;99699.88;1786915;78;26108;-61
2022/01/05 03:40:08;;;;;;;8.43;3.90;;;;;;;6.84;66.04;99696.02;1773519;80;25731;-61
2022/01/05 03:42:35;;;;;;;9.20;3.95;;;;;;;6.87;65.98;99685.02;1765550;80;25833;-61
2022/01/05 03:45:03;;;;;;;6.35;3.90;;;;;;;6.91;66.40;99682.91;1770335;81;25693;-62
2022/01/05 03:47:30;;;;;;;9.88;4.97;;;;;;;7.04;66.54;99673.28;1770373;81;27590;-63
2022/01/05 03:49:56;;;;;;;10.85;5.35;;;;;;;7.17;66.17;99679.20;1769971;81;25879;-62
2022/01/05 03:52:23;;;;;;;9.63;4.47;;;;;;;7.20;65.66;99685.62;1779058;79;25628;-62
2022/01/05 03:54:50;;;;;;;8.03;4.35;;;;;;;7.19;65.49;99689.27;1783910;79;25796;-62
2022/01/05 03:57:19;;;;;;;7.37;4.25;;;;;;;7.19;65.26;99688.41;1784233;80;25792;-62
2022/01/05 03:59:47;;;;;;;7.50;4.47;;;;;;;7.18;65.23;99690.26;1784250;80;27950;-62
2022/01/05 04:02:14;;;;;;;6.47;3.87;;;;;;;7.15;65.23;99691.03;1792989;79;25834;-63
2022/01/05 04:04:41;;;;;;;7.62;3.52;;;;;;;7.12;65.21;99680.61;1802866;79;25682;-62
2022/01/05 04:07:08;;;;;;;8.25;4.28;;;;;;;7.05;65.17;99684.33;1800488;78;25777;-62
2022/01/05 04:09:35;;;;;;;5.50;3.75;;;;;;;6.96;65.13;99689.18;1778649;80;25422;-62
2022/01/05 04:12:03;;;;;;;7.42;4.00;;;;;;;6.79;65.32;99686.72;1784559;79;28150;-62
2022/01/05 04:14:30;;;;;;;6.03;4.17;;;;;;;6.69;65.61;99686.68;1802841;79;25792;-62
2022/01/05 04:16:59;;;;;;;7.17;4.08;;;;;;;6.63;65.65;99696.13;1803062;79;25762;-62
2022/01/05 04:19:26;;;;;;;20.77;6.60;;;;;;;6.59;66.00;99697.36;1802487;78;25819;-62
2022/01/05 04:21:53;;;;;;;9.58;5.37;;;;;;;6.53;65.98;99705.43;1797131;79;25769;-63
2022/01/05 04:24:20;;;;;;;10.00;4.20;;;;;;;6.49;66.20;99704.03;1782187;80;28159;-62
2022/01/05 04:26:46;;;;;;;9.93;4.55;;;;;;;6.49;66.58;99707.17;1780941;80;25944;-62
2022/01/05 04:29:13;;;;;;;7.65;4.12;;;;;;;6.45;66.79;99715.12;1780846;80;25618;-63
2022/01/05 04:31:40;;;;;;;8.80;4.50;;;;;;;6.41;66.73;99727.41;1793959;79;25778;-62
2022/01/05 04:34:07;;;;;;;7.30;3.67;;;;;;;6.39;66.91;99735.20;1802394;79;25644;-62
2022/01/05 04:36:36;;;;;;;11.88;4.62;;;;;;;6.38;67.20;99745.53;1802202;79;28290;-62
2022/01/05 04:39:05;;;;;;;8.65;4.20;;;;;;;6.40;67.67;99753.76;1802694;79;25781;-62
2022/01/05 04:41:33;;;;;;;9.00;4.33;;;;;;;6.38;67.46;99753.55;1797684;79;25702;-63
2022/01/05 04:44:00;;;;;;;7.95;3.83;;;;;;;6.42;67.63;99756.29;1749795;81;25818;-62
2022/01/05 04:46:27;;;;;;;10.65;4.42;;;;;;;6.46;67.81;99752.85;1788980;79;25490;-62
2022/01/05 04:48:54;;;;;;;13.75;5.37;;;;;;;6.49;67.75;99743.24;1794556;79;27463;-62
2022/01/05 04:51:24;;;;;;;12.60;6.85;;;;;;;6.52;67.89;99745.66;1793082;79;25720;-62
2022/01/05 04:53:53;;;;;;;12.40;3.90;;;;;;;6.54;67.79;99754.39;1767391;81;25736;-61
2022/01/05 04:56:22;;;;;;;9.25;4.08;;;;;;;6.56;67.73;99764.42;1767246;81;25840;-61
2022/01/05 04:58:49;;;;;;;13.08;6.50;;;;;;;6.44;67.25;99767.69;1767308;81;25835;-61
2022/01/05 05:01:15;;;;;;;12.07;6.25;;;;;;;6.39;67.47;99764.59;1778321;79;27482;-61
2022/01/05 05:03:44;;;;;;;30.10;12.90;;;;;;;6.39;67.62;99763.25;1750034;82;25714;-61
2022/01/05 05:06:11;;;;;;;18.67;8.53;;;;;;;6.39;67.71;99765.42;1749366;82;25769;-61
2022/01/05 05:08:37;;;;;;;13.40;5.80;;;;;;;6.40;67.69;99774.30;1750229;82;25758;-60
2022/01/05 05:11:04;;;;;;;8.85;5.00;;;;;;;6.36;67.27;99778.20;1765728;79;25804;-61
2022/01/05 05:13:34;;;;;;;7.25;3.58;;;;;;;6.28;67.26;99781.53;1796828;79;27488;-61
2022/01/05 05:16:01;;;;;;;13.53;4.50;;;;;;;6.19;67.13;99780.52;1794582;79;25751;-61
2022/01/05 05:18:28;;;;;;;8.40;4.70;;;;;;;6.11;67.21;99787.84;1794510;79;25490;-61
2022/01/05 05:20:56;;;;;;;8.83;4.53;;;;;;;6.01;67.43;99789.60;1787980;79;25762;-61
2022/01/05 05:23:23;;;;;;;11.00;4.83;;;;;;;5.92;67.29;99793.89;1796717;79;25739;-61
2022/01/05 05:25:53;;;;;;;202.13;15.38;;;;;;;5.88;67.38;99795.61;1799498;79;26891;-61
2022/01/05 05:28:20;;;;;;;14.83;6.62;;;;;;;5.81;67.37;99800.61;1799210;79;25633;-61
2022/01/05 05:30:47;;;;;;;14.60;5.25;;;;;;;5.72;67.62;99811.59;1792462;79;25780;-61
2022/01/05 05:33:14;;;;;;;9.83;5.72;;;;;;;5.69;67.64;99813.67;1796942;79;25836;-61
2022/01/05 05:35:43;;;;;;;9.03;4.90;;;;;;;5.64;67.97;99821.56;1799408;79;25716;-61
2022/01/05 05:38:11;;;;;;;13.20;6.08;;;;;;;5.57;67.81;99828.38;1795665;79;27488;-61
2022/01/05 05:40:44;;;;;;;12.58;6.60;;;;;;;5.54;68.13;99829.12;1791372;80;25719;-61
2022/01/05 05:43:12;;;;;;;15.03;6.47;;;;;;;5.53;68.30;99832.77;1795387;79;25717;-61
2022/01/05 05:45:39;;;;;;;11.48;5.25;;;;;;;5.49;68.33;99830.34;1799308;79;25812;-61
2022/01/05 05:48:06;;;;;;;15.20;7.65;;;;;;;5.45;68.30;99836.92;1799532;79;25772;-61
2022/01/05 05:50:33;;;;;;;10.20;5.62;;;;;;;5.48;68.81;99837.98;1799119;79;27464;-61
2022/01/05 05:53:05;;;;;;;8.13;4.53;;;;;;;5.51;68.86;99828.91;1787693;79;26293;-61
2022/01/05 05:55:33;;;;;;;7.58;4.60;;;;;;;5.51;69.06;99828.04;1774612;80;25678;-61
2022/01/05 05:58:03;;;;;;;11.93;4.80;;;;;;;5.47;69.28;99826.11;1775017;80;25705;-61
2022/01/05 06:00:29;;;;;;;9.70;5.47;;;;;;;5.44;69.17;99827.22;1785596;79;25456;-61
2022/01/05 06:02:59;;;;;;;8.75;5.33;;;;;;;5.46;69.35;99843.09;1778249;79;27480;-61
2022/01/05 06:05:26;;;;;;;10.70;4.62;;;;;;;5.51;69.42;99846.71;1761530;81;25980;-61
2022/01/05 06:07:58;;;;;;;21.75;9.50;;;;;;;5.55;69.84;99849.50;1762293;81;25959;-61
2022/01/05 06:10:24;;;;;;;50.78;16.15;;;;;;;5.56;69.87;99851.20;1768217;79;25746;-61
2022/01/05 06:12:52;;;;;;;55.38;16.80;;;;;;;5.60;70.03;99856.13;1781814;79;25918;-61
2022/01/05 06:15:18;;;;;;;49.50;14.90;;;;;;;5.66;70.21;99861.95;1768500;80;27474;-61
2022/01/05 06:17:45;;;;;;;53.68;16.35;;;;;;;5.73;70.44;99865.33;1775157;80;25761;-61
2022/01/05 06:20:13;;;;;;;43.75;16.82;;;;;;;5.82;70.46;99867.70;1774398;79;25713;-61
2022/01/05 06:22:42;;;;;;;40.75;14.68;;;;;;;5.91;70.45;99864.77;1766049;79;25807;-60
2022/01/05 06:25:11;;;;;;;44.77;16.17;;;;;;;5.95;70.53;99857.70;1777273;80;25885;-61
2022/01/05 06:27:41;;;;;;;43.45;16.10;;;;;;;6.04;70.52;99848.09;1784406;80;27473;-61
2022/01/05 06:30:11;;;;;;;38.23;15.05;;;;;;;6.13;70.32;99849.15;1784524;79;26549;-61
2022/01/05 06:32:45;;;;;;;35.68;15.08;;;;;;;6.18;70.11;99858.11;1785907;79;25715;-61
2022/01/05 06:35:14;;;;;;;48.15;18.90;;;;;;;6.25;70.24;99867.28;1784047;80;25797;-61
2022/01/05 06:37:44;;;;;;;62.45;21.87;;;;;;;6.30;70.10;99861.55;1790363;79;25759;-60
2022/01/05 06:40:12;;;;;;;54.50;20.45;;;;;;;6.29;69.78;99849.17;1775310;80;28103;-61
2022/01/05 06:42:41;;;;;;;52.17;20.40;;;;;;;6.32;69.85;99856.93;1780717;80;25728;-61
2022/01/05 06:45:12;;;;;;;31.73;16.40;;;;;;;6.32;69.73;99850.25;1819044;78;25715;-61
2022/01/05 06:47:39;;;;;;;42.23;17.77;;;;;;;6.31;69.55;99858.73;1789549;80;25783;-61
2022/01/05 06:50:09;;;;;;;44.75;16.95;;;;;;;6.25;69.04;99861.44;1784648;80;25798;-61
2022/01/05 06:52:41;;;;;;;37.55;16.48;;;;;;;6.21;68.95;99866.70;1771802;80;28488;-61
2022/01/05 06:55:10;;;;;;;36.75;15.48;;;;;;;6.14;68.79;99861.50;1771340;81;25748;-61
2022/01/05 06:57:40;;;;;;;30.80;13.55;;;;;;;6.11;68.98;99860.44;1771412;81;25723;-61
2022/01/05 07:00:13;;;;;;;25.97;14.23;;;;;;;6.07;68.99;99869.67;1781848;80;25818;-61
2022/01/05 07:02:40;;;;;;;35.25;14.05;;;;;;;6.04;69.03;99863.28;1773892;79;25773;-61
2022/01/05 07:05:09;;;;;;;34.18;15.20;;;;;;;6.02;69.02;99868.72;1769943;81;27485;-61
2022/01/05 07:07:37;;;;;;;30.23;14.90;;;;;;;6.00;69.14;99876.04;1769653;81;25734;-61
2022/01/05 07:10:08;;;;;;;34.00;14.53;;;;;;;5.99;69.25;99874.78;1770016;81;25750;-61
2022/01/05 07:12:37;;;;;;;30.70;13.88;;;;;;;5.98;69.20;99875.28;1782472;80;25727;-61
2022/01/05 07:15:06;;;;;;;42.60;15.35;;;;;;;5.96;69.29;99875.39;1784286;80;25809;-61
2022/01/05 07:17:34;;;;;;;33.02;14.28;;;;;;;5.96;69.30;99875.39;1783974;80;27473;-61
2022/01/05 07:20:02;;;;;;;26.82;13.70;;;;;;;5.95;69.29;99880.40;1784273;80;26803;-61
2022/01/05 07:22:29;;;;;;;27.02;13.48;;;;;;;5.92;69.29;99872.63;1772104;80;25753;-61
2022/01/05 07:24:59;;;;;;;28.98;13.30;;;;;;;5.90;69.27;99869.23;1764861;81;25774;-61
2022/01/05 07:27:26;;;;;;;31.80;13.65;;;;;;;5.87;69.21;99874.83;1758816;81;25731;-61
2022/01/05 07:29:55;;;;;;;32.95;13.55;;;;;;;5.86;69.20;99863.81;1775590;80;27499;-61
2022/01/05 07:32:22;;;;;;;28.50;14.25;;;;;;;5.85;69.23;99855.45;1762756;80;25647;-60
2022/01/05 07:34:48;;;;;;;33.80;14.20;;;;;;;5.87;69.40;99854.80;1758989;81;25728;-61
2022/01/05 07:37:18;;;;;;;30.12;12.07;;;;;;;5.90;69.61;99852.39;1758832;81;25797;-60
2022/01/05 07:39:45;;;;;;;37.38;14.43;;;;;;;5.94;69.70;99852.00;1762394;80;25708;-60
2022/01/05 07:42:12;;;;;;;25.92;11.97;;;;;;;6.00;69.96;99860.02;1765631;79;28443;-61
2022/01/05 07:44:40;;;;;;;27.98;11.45;;;;;;;6.08;70.10;99859.36;1743181;82;25704;-61
2022/01/05 07:47:08;;;;;;;24.45;10.23;;;;;;;6.16;70.11;99859.55;1777272;80;25820;-61
2022/01/05 07:49:35;;;;;;;39.63;15.38;;;;;;;6.19;70.01;99853.96;1772214;80;25762;-61
2022/01/05 07:52:03;;;;;;;34.38;15.08;;;;;;;6.27;70.11;99853.31;1770867;80;25641;-61
2022/01/05 07:54:30;;;;;;;20.55;10.75;;;;;;;6.32;70.09;99867.11;1787087;79;27452;-60
2022/01/05 07:56:56;;;;;;;20.52;9.85;;;;;;;6.40;70.07;99857.12;1769887;80;25734;-61
2022/01/05 07:59:23;;;;;;;28.85;14.80;;;;;;;6.50;70.26;99845.97;1770380;80;25784;-61
2022/01/05 08:01:50;;;;;;;25.20;12.28;;;;;;;6.63;70.31;99848.92;1773733;80;25727;-61
2022/01/05 08:04:18;;;;;;;21.30;11.10;;;;;;;6.68;70.02;99846.21;1767198;80;25778;-61
2022/01/05 08:06:45;;;;;;;21.23;10.60;;;;;;;6.69;69.76;99849.24;1770424;80;27435;-60
2022/01/05 08:09:12;;;;;;;22.62;11.18;;;;;;;6.72;69.96;99845.45;1771193;80;25791;-60
2022/01/05 08:11:38;;;;;;;29.23;12.78;;;;;;;6.78;69.76;99853.42;1768328;80;25902;-61
2022/01/05 08:14:05;;;;;;;23.07;12.13;;;;;;;6.83;69.63;99861.88;1768033;80;26674;-61
2022/01/05 08:16:32;;;;;;;23.15;12.73;;;;;;;6.88;69.61;99866.34;1774109;79;25733;-61
2022/01/05 08:18:59;;;;;;;27.98;12.78;;;;;;;6.95;69.51;99854.63;1766384;79;27415;-61
2022/01/05 08:21:26;;;;;;;32.15;13.38;;;;;;;7.03;69.40;99846.27;1761140;80;25886;-61
2022/01/05 08:23:53;;;;;;;30.10;14.18;;;;;;;7.12;69.06;99848.63;1769509;80;25743;-61
2022/01/05 08:26:20;;;;;;;27.77;14.45;;;;;;;7.17;68.79;99849.05;1769868;79;26519;-61
2022/01/05 08:28:50;;;;;;;27.30;15.13;;;;;;;7.22;68.91;99851.83;1770144;80;25741;-61
2022/01/05 08:31:17;;;;;;;29.32;14.85;;;;;;;7.28;68.92;99865.98;1774432;79;28248;-61
2022/01/05 08:33:44;;;;;;;42.78;18.45;;;;;;;7.31;69.06;99862.53;1773963;80;25851;-60
2022/01/05 08:36:10;;;;;;;45.40;18.95;;;;;;;7.38;69.06;99859.30;1776098;79;25731;-61
2022/01/05 08:38:40;;;;;;;44.15;22.82;;;;;;;7.46;69.10;99860.31;1771240;79;25784;-61
2022/01/05 08:41:08;;;;;;;48.48;24.18;;;;;;;7.52;69.06;99857.08;1770806;80;25801;-61
2022/01/05 08:43:34;;;;;;;42.35;21.40;;;;;;;7.59;68.93;99856.50;1774520;80;28138;-61
2022/01/05 08:46:03;;;;;;;50.25;21.40;;;;;;;7.63;68.78;99857.93;1764241;79;25707;-61
2022/01/05 08:48:30;;;;;;;43.83;21.27;;;;;;;7.66;68.66;99852.31;1771573;79;25455;-61
2022/01/05 08:50:59;;;;;;;43.95;20.88;;;;;;;7.71;68.71;99855.40;1775073;80;25808;-62
2022/01/05 08:53:26;;;;;;;43.92;22.50;;;;;;;7.76;68.73;99846.44;1775612;80;25792;-61
2022/01/05 08:55:53;;;;;;;42.13;21.35;;;;;;;7.80;68.75;99838.49;1776734;79;27495;-61
2022/01/05 08:58:25;;;;;;;36.63;16.85;;;;;;;7.83;68.61;99835.55;1773438;79;25789;-61
2022/01/05 09:00:52;;;;;;;36.00;15.70;;;;;;;7.84;68.62;99841.73;1770093;79;25759;-61
2022/01/05 09:03:19;;;;;;;35.43;15.90;;;;;;;7.86;68.59;99837.56;1769919;80;25765;-61
2022/01/05 09:05:47;;;;;;;30.52;14.55;;;;;;;7.83;68.55;99830.19;1770040;79;25756;-61
2022/01/05 09:08:15;;;;;;;29.77;15.23;;;;;;;7.80;68.85;99838.49;1788953;79;27455;-60
2022/01/05 09:10:42;;;;;;;26.20;14.15;;;;;;;7.81;69.13;99847.36;1774653;80;25690;-61
2022/01/05 09:13:12;;;;;;;27.73;14.28;;;;;;;7.80;69.05;99849.68;1767781;79;26400;-61
2022/01/05 09:15:40;;;;;;;30.60;14.90;;;;;;;7.79;69.35;99852.86;1765695;79;25821;-62
2022/01/05 09:18:09;;;;;;;26.45;14.93;;;;;;;7.79;69.40;99848.02;1784783;79;25718;-60
2022/01/05 09:20:36;;;;;;;25.30;14.75;;;;;;;7.79;69.35;99842.66;1783307;79;27412;-61
2022/01/05 09:23:04;;;;;;;25.95;14.10;;;;;;;7.81;69.60;99837.51;1794625;79;25797;-61
2022/01/05 09:25:31;;;;;;;24.07;14.28;;;;;;;7.88;69.72;99833.78;1772184;79;26630;-61
2022/01/05 09:27:58;;;;;;;21.12;13.40;;;;;;;7.95;69.81;99826.86;1783011;78;25797;-61
2022/01/05 09:30:27;;;;;;;28.57;13.75;;;;;;;8.04;69.74;99823.80;1770200;80;25813;-61
2022/01/05 09:32:54;;;;;;;33.02;14.55;;;;;;;8.10;69.73;99821.91;1759245;80;27477;-61
2022/01/05 09:35:24;;;;;;;31.17;15.18;;;;;;;8.18;69.66;99824.36;1759297;80;25721;-61
2022/01/05 09:37:55;;;;;;;34.65;15.28;;;;;;;8.24;69.56;99828.66;1763226;80;25743;-61
2022/01/05 09:43:08;;;;;;;26.15;14.98;;;;;;;8.26;68.87;99819.95;1759029;81;25780;-61
2022/01/05 09:45:38;;;;;;;28.75;14.58;;;;;;;8.26;68.89;99813.77;1759678;80;28152;-61
2022/01/05 09:48:37;;;;;;;32.45;16.67;;;;;;;8.25;68.76;99811.56;1758383;80;25793;-61
2022/01/05 09:51:12;;;;;;;32.35;16.80;;;;;;;8.25;68.69;99814.24;1761248;80;25725;-61
2022/01/05 09:53:40;;;;;;;32.50;16.82;;;;;;;8.18;68.15;99821.69;1776048;79;25789;-61
2022/01/05 09:56:07;;;;;;;34.65;16.70;;;;;;;8.04;68.34;99818.95;1779217;80;25734;-60
2022/01/05 09:58:35;;;;;;;37.35;19.77;;;;;;;7.99;68.56;99810.84;1748529;80;28548;-61
2022/01/05 10:01:04;;;;;;;32.95;18.35;;;;;;;7.98;68.86;99818.52;1773512;80;25743;-61
2022/01/05 10:03:31;;;;;;;35.55;19.00;;;;;;;7.98;69.05;99817.18;1762797;79;26193;-61
2022/01/05 10:06:00;;;;;;;40.88;19.95;;;;;;;7.97;68.85;99811.98;1762000;80;26429;-61
2022/01/05 10:08:29;;;;;;;40.08;19.17;;;;;;;7.96;68.95;99816.98;1778606;80;25775;-61
2022/01/05 10:10:56;;;;;;;36.20;17.87;;;;;;;7.95;69.01;99821.51;1759431;80;27571;-61
2022/01/05 10:13:23;;;;;;;29.48;16.05;;;;;;;7.94;69.03;99825.64;1776752;80;25807;-61
2022/01/05 10:15:51;;;;;;;26.97;15.08;;;;;;;7.92;68.85;99816.42;1761543;80;25673;-61
2022/01/05 10:18:22;;;;;;;53.60;21.10;;;;;;;7.91;68.80;99810.71;1778144;80;26607;-61
2022/01/05 10:21:02;;;;;;;40.52;20.02;;;;;;;7.90;68.77;99805.51;1770288;79;26174;-61
2022/01/05 10:23:36;;;;;;;34.78;18.15;;;;;;;7.90;68.83;99805.00;1757810;80;27444;-61
2022/01/05 10:26:29;;;;;;;36.17;18.05;;;;;;;7.88;68.86;99798.97;1759316;80;25799;-61
2022/01/05 10:29:04;;;;;;;32.83;17.85;;;;;;;7.88;68.92;99806.14;1772014;80;26330;-61
2022/01/05 10:31:40;;;;;;;45.28;19.48;;;;;;;7.86;68.94;99796.05;1762092;80;25919;-61
2022/01/05 10:34:20;;;;;;;41.58;20.45;;;;;;;7.88;69.19;99800.78;1763850;80;25725;-60
2022/01/05 10:36:57;;;;;;;31.05;18.17;;;;;;;7.88;69.32;99795.42;1769618;79;46339;-61
2022/01/05 10:39:35;;;;;;;33.92;17.87;;;;;;;7.90;69.55;99786.25;1764446;80;25803;-61
2022/01/05 10:42:12;;;;;;;35.58;17.65;;;;;;;7.95;69.86;99774.64;1768066;80;25766;-61
2022/01/05 10:44:44;;;;;;;29.23;16.37;;;;;;;8.02;70.01;99780.27;1767899;80;25763;-61
2022/01/05 10:47:15;;;;;;;35.17;16.73;;;;;;;8.08;69.96;99768.97;1768935;79;26172;-61
2022/01/05 10:49:42;;;;;;;28.15;15.65;;;;;;;8.15;70.13;99763.38;1796322;79;27543;-62
2022/01/05 10:52:28;;;;;;;28.20;16.15;;;;;;;8.20;69.92;99768.80;1792981;79;25820;-61
2022/01/05 10:55:17;;;;;;;31.82;16.15;;;;;;;8.22;69.78;99764.98;1772034;79;25883;-62
2022/01/05 10:58:04;;;;;;;32.48;16.52;;;;;;;8.29;70.04;99759.89;1772885;79;25811;-61
2022/01/05 11:00:39;;;;;;;43.25;18.45;;;;;;;8.40;69.84;99756.18;1770801;79;25838;-61
2022/01/05 11:03:28;;;;;;;34.20;20.32;;;;;;;8.50;69.61;99756.16;1770139;80;27470;-61
2022/01/05 11:06:08;;;;;;;41.95;20.52;;;;;;;8.58;69.60;99752.23;1748814;80;25809;-61
2022/01/05 11:08:59;;;;;;;41.00;22.00;;;;;;;8.72;69.65;99761.14;1777310;79;25801;-61
2022/01/05 11:11:44;;;;;;;37.70;21.80;;;;;;;8.82;68.99;99750.86;1772354;79;25777;-61
2022/01/05 11:14:29;;;;;;;39.83;20.55;;;;;;;8.89;69.01;99748.75;1768993;79;25691;-61
2022/01/05 11:17:03;;;;;;;40.30;19.95;;;;;;;8.95;68.70;99737.92;1767994;79;27392;-61
2022/01/05 11:19:33;;;;;;;45.55;20.15;;;;;;;8.98;68.31;99732.75;1768496;80;30612;-61
2022/01/05 11:22:15;;;;;;;43.17;21.50;;;;;;;8.97;68.22;99737.77;1764281;80;25814;-62
2022/01/05 11:24:52;;;;;;;42.55;21.50;;;;;;;8.99;68.26;99735.78;1752077;80;25825;-61
2022/01/05 11:27:27;;;;;;;43.85;21.73;;;;;;;8.98;67.97;99735.43;1772005;79;26277;-61
2022/01/05 11:29:57;;;;;;;43.17;23.30;;;;;;;8.96;67.71;99739.61;1768718;79;27481;-62
2022/01/05 11:32:27;;;;;;;43.15;21.75;;;;;;;8.96;67.94;99744.15;1773343;80;26117;-62
2022/01/05 11:34:55;;;;;;;42.62;22.42;;;;;;;8.99;67.97;99742.48;1773749;79;25803;-61
2022/01/05 11:37:26;;;;;;;40.52;21.33;;;;;;;9.00;67.91;99743.70;1771598;79;25896;-62
2022/01/05 11:39:55;;;;;;;41.58;21.80;;;;;;;9.02;67.96;99744.36;1774509;79;25833;-61
2022/01/05 11:42:33;;;;;;;37.75;20.88;;;;;;;9.04;67.87;99749.59;1773866;79;27432;-61
2022/01/05 11:45:02;;;;;;;43.05;22.75;;;;;;;9.04;67.86;99748.26;1761486;79;25817;-61